Time;durP1;ratioP1;P1;durP2;ratioP2;P2;SDS_P1;SDS_P2;PMS_P1;PMS_P2;Temp;Humidity;BMP_temperature;BMP_pressure;BME280_temperature;BME280_humidity;BME280_pressure;Samples;Min_cycle;Max_cycle;Signal;HPM_P1;HPM_P2
2023/06/15 00:00:55;;;;;;;6.47;3.67;;;18.30;21.70;;;;;;5071860;28;20479;-73
2023/06/15 00:03:20;;;;;;;5.28;3.25;;;18.30;22.40;;;;;;5071856;28;20384;-73
2023/06/15 00:05:46;;;;;;;8.80;3.55;;;18.20;22.20;;;;;;5071712;28;20379;-72
2023/06/15 00:08:12;;;;;;;5.03;3.50;;;18.20;22.40;;;;;;5071723;28;20375;-72
2023/06/15 00:10:37;;;;;;;7.33;3.50;;;18.10;22.80;;;;;;5071777;28;20387;-73
2023/06/15 00:13:03;;;;;;;7.60;3.70;;;18.10;23.00;;;;;;5071774;28;20440;-73
2023/06/15 00:15:29;;;;;;;6.40;3.50;;;18.00;23.10;;;;;;5071356;28;20447;-73
2023/06/15 00:17:54;;;;;;;9.20;3.90;;;18.00;23.40;;;;;;5070038;28;20395;-73
2023/06/15 00:20:22;;;;;;;5.38;4.20;;;18.00;23.40;;;;;;5071187;28;20500;-73
2023/06/15 00:22:50;;;;;;;5.53;3.70;;;18.00;23.60;;;;;;5070549;28;20880;-73
2023/06/15 00:25:16;;;;;;;4.70;3.67;;;18.00;23.20;;;;;;5071142;28;20384;-73
2023/06/15 00:27:42;;;;;;;3.95;3.20;;;18.00;23.20;;;;;;5072561;28;20879;-73
2023/06/15 00:30:11;;;;;;;4.35;3.50;;;18.00;23.20;;;;;;5071947;28;20412;-73
2023/06/15 00:32:37;;;;;;;4.17;3.17;;;18.10;23.10;;;;;;5072981;28;20390;-73
2023/06/15 00:35:03;;;;;;;7.00;4.00;;;17.90;23.30;;;;;;5073844;28;20416;-74
2023/06/15 00:37:29;;;;;;;7.88;3.67;;;17.70;24.10;;;;;;5074095;28;20419;-73
2023/06/15 00:39:55;;;;;;;5.60;3.93;;;17.80;24.90;;;;;;5073352;28;20903;-73
2023/06/15 00:42:21;;;;;;;8.40;4.00;;;17.80;25.00;;;;;;5072867;28;20391;-74
2023/06/15 00:44:46;;;;;;;6.75;3.88;;;17.60;25.70;;;;;;5072512;28;20400;-74
2023/06/15 00:47:12;;;;;;;4.77;3.67;;;17.60;25.90;;;;;;5071193;28;20909;-74
2023/06/15 00:49:38;;;;;;;4.93;3.60;;;17.60;26.40;;;;;;5071275;28;20779;-72
2023/06/15 00:52:04;;;;;;;6.97;4.00;;;17.90;25.90;;;;;;5071108;28;20431;-72
2023/06/15 00:54:30;;;;;;;7.80;3.90;;;17.90;25.70;;;;;;5071122;28;20558;-72
2023/06/15 00:56:56;;;;;;;7.20;3.90;;;17.90;25.80;;;;;;5070913;28;20383;-73
2023/06/15 00:59:22;;;;;;;4.90;3.60;;;17.60;26.60;;;;;;5071041;28;20738;-73
2023/06/15 01:01:48;;;;;;;8.00;3.78;;;17.40;27.70;;;;;;5070454;28;20868;-73
2023/06/15 01:04:14;;;;;;;7.22;4.43;;;17.30;28.30;;;;;;5070851;28;20748;-73
2023/06/15 01:06:52;;;;;;;7.13;4.40;;;17.30;28.90;;;;;;5070802;28;20379;-72
2023/06/15 01:09:20;;;;;;;5.82;3.85;;;17.20;28.90;;;;;;5070659;28;20437;-72
2023/06/15 01:11:50;;;;;;;9.50;4.38;;;17.20;29.20;;;;;;5070535;28;20406;-73
2023/06/15 01:14:16;;;;;;;9.05;4.30;;;17.00;29.70;;;;;;5070574;28;20907;-73
2023/06/15 01:16:52;;;;;;;9.37;4.13;;;17.00;30.20;;;;;;5070823;28;20392;-72
2023/06/15 01:19:39;;;;;;;9.57;3.90;;;17.10;30.00;;;;;;5070549;28;20933;-73
2023/06/15 01:22:34;;;;;;;7.85;4.25;;;17.10;30.10;;;;;;5071163;28;20388;-72
2023/06/15 01:25:29;;;;;;;7.60;3.75;;;16.90;30.60;;;;;;5070858;28;20428;-72
2023/06/15 01:28:00;;;;;;;6.30;4.07;;;17.00;30.70;;;;;;5071020;28;20433;-73
2023/06/15 01:30:29;;;;;;;7.25;4.53;;;16.80;31.30;;;;;;5070926;28;20751;-73
2023/06/15 01:32:55;;;;;;;6.03;4.30;;;16.80;31.50;;;;;;5070344;28;20387;-72
2023/06/15 01:35:21;;;;;;;8.10;4.50;;;16.80;31.70;;;;;;5070434;28;20379;-74
2023/06/15 01:37:46;;;;;;;6.77;4.30;;;16.80;31.60;;;;;;5070507;28;20868;-72
2023/06/15 01:40:12;;;;;;;11.95;5.00;;;17.00;31.10;;;;;;5070659;28;20514;-73
2023/06/15 01:42:40;;;;;;;7.78;4.60;;;17.10;30.40;;;;;;5070038;28;20376;-73
2023/06/15 01:45:07;;;;;;;9.07;4.20;;;17.10;30.20;;;;;;5070002;28;20741;-73
2023/06/15 01:47:32;;;;;;;6.40;4.00;;;17.10;30.30;;;;;;5070627;28;20379;-72
2023/06/15 01:50:00;;;;;;;7.77;4.77;;;16.90;31.10;;;;;;5071471;28;21009;-73
2023/06/15 01:52:26;;;;;;;8.82;4.50;;;16.80;31.40;;;;;;5071470;28;20386;-73
2023/06/15 01:54:51;;;;;;;7.40;4.70;;;16.80;31.50;;;;;;5072161;28;20475;-73
2023/06/15 01:57:20;;;;;;;11.90;5.10;;;16.80;31.80;;;;;;5071862;28;20391;-74
2023/06/15 01:59:46;;;;;;;8.70;4.88;;;16.80;31.80;;;;;;5071117;28;20403;-74
2023/06/15 02:02:11;;;;;;;8.95;4.72;;;16.70;32.20;;;;;;5071603;28;20406;-73
2023/06/15 02:04:37;;;;;;;12.68;4.85;;;16.60;33.10;;;;;;5070415;28;20376;-74
2023/06/15 02:07:03;;;;;;;8.97;4.50;;;16.40;34.40;;;;;;5071258;28;20410;-74
2023/06/15 02:09:29;;;;;;;7.90;4.80;;;16.30;34.70;;;;;;5071206;28;20387;-73
2023/06/15 02:11:54;;;;;;;11.23;5.20;;;16.30;34.90;;;;;;5070516;28;20398;-74
2023/06/15 02:14:23;;;;;;;7.40;4.90;;;16.40;34.50;;;;;;5071201;28;20387;-74
2023/06/15 02:16:49;;;;;;;12.82;5.03;;;16.40;34.60;;;;;;5071162;28;20475;-73
2023/06/15 02:19:21;;;;;;;9.68;4.53;;;16.30;35.10;;;;;;5070333;28;20407;-74
2023/06/15 02:21:49;;;;;;;9.52;4.90;;;16.40;34.60;;;;;;5071757;28;20394;-73
2023/06/15 02:24:17;;;;;;;8.30;5.20;;;16.30;35.30;;;;;;5071217;28;20448;-74
2023/06/15 02:26:43;;;;;;;12.40;5.07;;;16.30;34.90;;;;;;5072088;28;20375;-73
2023/06/15 02:29:09;;;;;;;9.95;4.50;;;16.20;35.30;;;;;;5070770;28;20388;-73
2023/06/15 02:31:36;;;;;;;10.55;5.35;;;16.20;36.00;;;;;;5073879;28;20388;-74
2023/06/15 02:34:01;;;;;;;6.80;5.00;;;16.00;36.80;;;;;;5071381;28;20565;-73
2023/06/15 02:36:28;;;;;;;7.90;4.90;;;16.10;36.10;;;;;;5071524;28;20892;-74
2023/06/15 02:38:54;;;;;;;7.18;4.68;;;16.00;36.80;;;;;;5069918;28;20383;-74
2023/06/15 02:41:20;;;;;;;9.15;5.20;;;16.00;36.20;;;;;;5069269;28;20393;-73
2023/06/15 02:43:45;;;;;;;7.50;4.95;;;16.10;36.20;;;;;;5069397;28;20425;-73
2023/06/15 02:46:11;;;;;;;8.40;4.80;;;15.90;37.00;;;;;;5069599;28;20388;-73
2023/06/15 02:48:37;;;;;;;9.00;5.20;;;16.00;36.60;;;;;;5073176;28;20387;-73
2023/06/15 02:51:03;;;;;;;9.00;5.10;;;16.10;36.40;;;;;;5072987;28;20376;-73
2023/06/15 02:53:28;;;;;;;11.60;5.57;;;16.00;36.50;;;;;;5073012;28;20387;-73
2023/06/15 02:55:54;;;;;;;7.97;5.30;;;15.90;37.90;;;;;;5066499;28;20401;-73
2023/06/15 02:58:20;;;;;;;11.40;6.15;;;15.80;38.00;;;;;;5058799;28;20404;-74
2023/06/15 03:00:50;;;;;;;9.15;5.93;;;16.00;37.20;;;;;;5064153;28;20417;-75
2023/06/15 03:03:22;;;;;;;11.23;5.60;;;16.10;36.60;;;;;;5067795;28;20399;-73
2023/06/15 03:05:51;;;;;;;8.07;5.65;;;16.10;36.70;;;;;;5070900;28;20380;-74
2023/06/15 03:08:18;;;;;;;9.65;5.63;;;16.00;37.60;;;;;;5063995;28;20391;-74
2023/06/15 03:10:44;;;;;;;8.90;5.20;;;15.90;37.60;;;;;;5061501;28;20877;-74
2023/06/15 03:13:10;;;;;;;14.40;5.50;;;15.80;38.50;;;;;;5052666;28;20393;-73
2023/06/15 03:15:36;;;;;;;8.82;5.43;;;15.90;39.00;;;;;;5052475;28;20396;-74
2023/06/15 03:18:03;;;;;;;7.17;5.37;;;16.20;37.00;;;;;;5052644;28;20386;-74
2023/06/15 03:20:32;;;;;;;10.90;5.30;;;16.30;35.80;;;;;;5063276;28;20414;-74
2023/06/15 03:22:59;;;;;;;9.38;5.60;;;16.30;35.50;;;;;;5070846;28;20490;-73
2023/06/15 03:25:25;;;;;;;10.63;5.40;;;16.30;35.30;;;;;;5052321;28;20493;-72
2023/06/15 03:27:53;;;;;;;7.13;5.13;;;16.10;35.60;;;;;;5052615;28;20941;-73
2023/06/15 03:30:20;;;;;;;7.93;5.10;;;15.90;37.30;;;;;;5052373;28;20469;-73
2023/06/15 03:32:47;;;;;;;9.20;4.90;;;15.80;37.50;;;;;;5052075;28;20390;-72
2023/06/15 03:35:14;;;;;;;11.70;5.15;;;15.90;37.70;;;;;;5052253;28;20419;-73
2023/06/15 03:37:39;;;;;;;9.38;5.13;;;16.10;36.40;;;;;;5052157;28;20381;-73
2023/06/15 03:40:06;;;;;;;7.27;5.50;;;16.10;36.20;;;;;;5052354;28;20416;-73
2023/06/15 03:42:32;;;;;;;8.15;5.65;;;16.20;35.50;;;;;;5052039;28;20394;-73
2023/06/15 03:44:58;;;;;;;10.73;5.18;;;16.20;35.70;;;;;;5063199;23;20381;-75
2023/06/15 03:47:25;;;;;;;8.70;5.20;;;16.30;35.10;;;;;;5052408;28;20765;-74
2023/06/15 03:49:50;;;;;;;9.37;5.40;;;16.40;34.30;;;;;;5052919;28;20390;-74
2023/06/15 03:52:16;;;;;;;7.30;5.20;;;16.50;33.80;;;;;;5034287;28;20385;-75
2023/06/15 03:54:41;;;;;;;7.93;5.00;;;16.50;33.60;;;;;;5052321;28;20388;-75
2023/06/15 03:57:07;;;;;;;8.65;5.30;;;16.40;34.00;;;;;;5052167;28;20389;-74
2023/06/15 03:59:33;;;;;;;10.93;5.60;;;16.40;33.80;;;;;;5051418;28;20409;-75
2023/06/15 04:01:58;;;;;;;14.93;8.97;;;16.50;33.60;;;;;;5051999;28;20389;-76
2023/06/15 04:04:24;;;;;;;8.80;5.70;;;16.50;34.10;;;;;;5050917;28;20385;-76
2023/06/15 04:06:53;;;;;;;11.25;5.03;;;16.50;34.00;;;;;;5052264;28;20846;-74
2023/06/15 04:09:19;;;;;;;9.07;5.28;;;16.70;32.60;;;;;;5052066;28;20758;-74
2023/06/15 04:11:44;;;;;;;12.75;5.63;;;16.70;32.20;;;;;;5051805;28;20464;-73
2023/06/15 04:14:11;;;;;;;11.38;5.53;;;16.70;32.30;;;;;;5051840;28;20809;-76
2023/06/15 04:16:37;;;;;;;9.95;5.38;;;16.70;32.20;;;;;;5052497;28;20481;-75
2023/06/15 04:19:02;;;;;;;7.55;5.38;;;16.70;32.80;;;;;;5051681;28;20492;-76
2023/06/15 04:21:28;;;;;;;10.23;5.95;;;16.60;33.50;;;;;;5051844;28;20394;-74
2023/06/15 04:23:53;;;;;;;9.27;5.23;;;16.70;33.50;;;;;;5052081;28;20464;-75
2023/06/15 04:26:19;;;;;;;9.87;5.60;;;16.70;34.10;;;;;;5051485;28;20439;-74
2023/06/15 04:28:45;;;;;;;9.70;6.40;;;16.80;32.70;;;;;;5052116;28;20483;-75
2023/06/15 04:31:17;;;;;;;11.75;5.50;;;16.80;33.20;;;;;;5052142;28;20897;-75
2023/06/15 04:33:43;;;;;;;10.02;5.20;;;16.80;32.70;;;;;;5052315;28;20853;-74
2023/06/15 04:36:12;;;;;;;10.63;4.90;;;17.00;32.60;;;;;;5054117;28;20385;-76
2023/06/15 04:38:40;;;;;;;6.70;5.38;;;17.10;32.00;;;;;;5054070;28;20386;-74
2023/06/15 04:41:07;;;;;;;9.07;5.18;;;17.00;32.30;;;;;;5051489;28;20441;-75
2023/06/15 04:43:34;;;;;;;11.98;5.60;;;17.30;31.80;;;;;;5053321;28;20483;-76
2023/06/15 04:46:00;;;;;;;12.30;5.75;;;17.30;31.40;;;;;;5052783;28;20399;-74
2023/06/15 04:48:27;;;;;;;16.95;6.45;;;17.30;31.20;;;;;;5051461;28;20389;-74
2023/06/15 04:50:53;;;;;;;8.90;5.43;;;17.50;29.90;;;;;;5051658;28;20400;-76
2023/06/15 04:53:19;;;;;;;9.00;5.13;;;17.60;30.00;;;;;;5055935;28;20386;-75
2023/06/15 04:55:47;;;;;;;12.00;5.50;;;17.40;30.00;;;;;;5054011;28;20456;-74
2023/06/15 04:58:13;;;;;;;9.48;5.28;;;17.40;30.50;;;;;;5050058;28;20385;-75
2023/06/15 05:00:39;;;;;;;11.38;5.85;;;17.60;30.80;;;;;;5052368;28;20415;-75
2023/06/15 05:03:05;;;;;;;8.73;5.28;;;17.80;30.70;;;;;;5057345;28;20396;-74
2023/06/15 05:05:30;;;;;;;8.68;5.50;;;18.00;29.10;;;;;;5057316;28;20409;-73
2023/06/15 05:07:56;;;;;;;15.30;6.07;;;18.10;28.60;;;;;;5056679;28;20378;-76
2023/06/15 05:10:21;;;;;;;11.20;5.50;;;18.20;27.60;;;;;;5055801;28;20419;-76
2023/06/15 05:12:47;;;;;;;6.80;5.00;;;18.30;27.30;;;;;;5053408;28;20393;-75
2023/06/15 05:15:13;;;;;;;9.77;5.85;;;18.40;27.30;;;;;;5053138;28;20435;-75
2023/06/15 05:17:38;;;;;;;15.00;6.10;;;18.50;27.60;;;;;;5052985;28;20465;-75
2023/06/15 05:20:05;;;;;;;11.13;6.27;;;18.60;27.10;;;;;;5052156;28;20482;-75
2023/06/15 05:22:31;;;;;;;11.98;5.90;;;18.70;26.40;;;;;;5050957;28;20386;-74
2023/06/15 05:24:57;;;;;;;12.90;6.20;;;18.80;25.90;;;;;;5050949;28;20782;-74
2023/06/15 05:27:22;;;;;;;11.80;6.30;;;18.80;25.30;;;;;;5049660;28;20394;-75
2023/06/15 05:29:48;;;;;;;15.23;6.90;;;19.00;24.50;;;;;;5049362;28;20389;-75
2023/06/15 05:32:13;;;;;;;12.10;6.80;;;19.00;24.80;;;;;;5049896;28;20464;-77
2023/06/15 05:34:39;;;;;;;8.53;5.60;;;19.20;24.60;;;;;;5050857;28;20740;-75
2023/06/15 05:37:05;;;;;;;10.50;5.90;;;19.20;24.30;;;;;;5050625;28;20392;-78
2023/06/15 05:39:30;;;;;;;10.05;6.18;;;19.50;23.40;;;;;;5050552;28;20856;-75
2023/06/15 05:41:56;;;;;;;11.50;5.50;;;19.50;23.10;;;;;;5050152;28;20913;-75
2023/06/15 05:44:21;;;;;;;12.30;5.78;;;19.50;23.20;;;;;;5050634;28;20392;-75
2023/06/15 05:46:47;;;;;;;13.03;6.20;;;19.60;22.70;;;;;;5050409;28;20496;-74
2023/06/15 05:49:13;;;;;;;14.60;5.93;;;19.80;21.70;;;;;;5050525;28;20393;-75
2023/06/15 05:51:38;;;;;;;13.90;6.38;;;20.00;21.00;;;;;;5050600;28;20901;-74
2023/06/15 05:54:04;;;;;;;13.70;6.07;;;20.10;20.40;;;;;;5050529;28;20739;-75
2023/06/15 05:56:30;;;;;;;14.43;6.05;;;20.20;20.20;;;;;;5053667;28;20389;-75
2023/06/15 05:58:55;;;;;;;10.45;6.05;;;20.30;20.60;;;;;;5054705;28;20441;-76
2023/06/15 06:01:21;;;;;;;13.88;5.72;;;20.40;19.70;;;;;;5054132;28;20417;-75
2023/06/15 06:03:47;;;;;;;10.30;5.63;;;20.40;19.60;;;;;;5053110;28;20783;-76
2023/06/15 06:06:13;;;;;;;14.02;5.93;;;20.30;18.80;;;;;;5051632;28;20393;-77
2023/06/15 06:08:39;;;;;;;17.17;5.70;;;20.30;18.80;;;;;;5053761;28;20416;-74
2023/06/15 06:11:07;;;;;;;12.43;5.80;;;20.40;19.30;;;;;;5049394;28;20692;-75
2023/06/15 06:13:34;;;;;;;12.02;5.65;;;20.80;18.50;;;;;;5050301;28;20468;-77
2023/06/15 06:16:00;;;;;;;12.23;5.30;;;21.00;17.40;;;;;;5050417;28;20389;-74
2023/06/15 06:18:26;;;;;;;13.38;5.53;;;21.10;17.20;;;;;;5050432;28;20476;-74
2023/06/15 06:20:51;;;;;;;14.07;5.38;;;21.10;17.50;;;;;;5049985;28;20491;-76
2023/06/15 06:23:17;;;;;;;12.57;6.27;;;21.00;16.90;;;;;;5052632;28;20465;-75
2023/06/15 06:25:43;;;;;;;10.90;5.37;;;21.00;16.70;;;;;;5052381;28;20944;-74
2023/06/15 06:28:08;;;;;;;10.57;4.90;;;21.00;16.60;;;;;;5053968;28;20510;-74
2023/06/15 06:30:34;;;;;;;12.93;6.03;;;21.10;16.90;;;;;;5053869;28;20475;-75
2023/06/15 06:33:02;;;;;;;11.82;5.47;;;21.50;16.20;;;;;;5053852;28;20385;-76
2023/06/15 06:35:27;;;;;;;16.92;5.40;;;21.60;15.60;;;;;;5053890;28;20381;-76
2023/06/15 06:37:53;;;;;;;9.25;5.22;;;21.40;15.70;;;;;;5053891;28;20896;-75
2023/06/15 06:40:19;;;;;;;16.30;5.97;;;21.50;15.60;;;;;;5053664;28;20877;-75
2023/06/15 06:42:44;;;;;;;11.35;5.38;;;21.40;15.20;;;;;;5054097;28;20464;-76
2023/06/15 06:45:10;;;;;;;12.80;5.80;;;21.50;15.30;;;;;;5053729;28;20403;-76
2023/06/15 06:47:36;;;;;;;10.73;5.32;;;21.60;14.50;;;;;;5053705;28;20388;-76
2023/06/15 06:50:01;;;;;;;13.00;6.43;;;21.60;14.60;;;;;;5053397;28;20427;-76
2023/06/15 06:52:27;;;;;;;15.55;5.93;;;21.70;14.40;;;;;;5052040;28;20453;-74
2023/06/15 06:54:53;;;;;;;16.97;6.27;;;21.80;14.50;;;;;;5053463;28;20404;-74
2023/06/15 06:57:18;;;;;;;11.00;5.50;;;21.90;14.50;;;;;;5053910;28;20934;-76
2023/06/15 06:59:44;;;;;;;16.02;6.22;;;22.00;14.00;;;;;;5053258;28;20458;-75
2023/06/15 07:02:09;;;;;;;18.63;6.43;;;22.10;14.10;;;;;;5051939;28;20385;-75
2023/06/15 07:04:35;;;;;;;14.48;6.00;;;22.10;14.00;;;;;;5053508;28;20913;-74
2023/06/15 07:07:01;;;;;;;14.87;5.87;;;22.10;14.10;;;;;;5052472;28;20429;-77
2023/06/15 07:09:27;;;;;;;13.32;5.22;;;22.20;14.30;;;;;;5053153;28;20420;-74
2023/06/15 07:11:52;;;;;;;12.20;5.97;;;22.20;14.40;;;;;;5053091;28;20377;-76
2023/06/15 07:14:19;;;;;;;16.30;6.10;;;22.40;14.40;;;;;;5053770;28;20750;-73
2023/06/15 07:16:45;;;;;;;11.07;5.30;;;22.60;14.00;;;;;;5054374;28;20425;-78
2023/06/15 07:19:10;;;;;;;10.07;5.10;;;22.70;13.60;;;;;;5053531;28;20421;-74
2023/06/15 07:21:36;;;;;;;12.55;6.18;;;22.80;12.40;;;;;;5053243;28;20387;-75
2023/06/15 07:24:01;;;;;;;10.93;5.53;;;22.90;12.60;;;;;;5052820;28;20811;-74
2023/06/15 07:26:27;;;;;;;13.20;5.35;;;22.90;11.90;;;;;;5052953;28;20389;-75
2023/06/15 07:28:53;;;;;;;8.45;5.50;;;23.20;10.20;;;;;;5053406;28;20435;-77
2023/06/15 07:31:18;;;;;;;15.43;6.40;;;23.40;10.50;;;;;;5052802;28;20472;-75
2023/06/15 07:33:44;;;;;;;12.70;5.40;;;23.50;10.90;;;;;;5054304;28;20726;-77
2023/06/15 07:36:10;;;;;;;17.43;5.90;;;23.50;9.90;;;;;;5055086;28;20484;-75
2023/06/15 07:38:37;;;;;;;15.63;5.60;;;23.50;9.80;;;;;;5054043;28;20818;-76
2023/06/15 07:41:02;;;;;;;10.38;5.07;;;23.60;9.50;;;;;;5053051;28;20433;-75
2023/06/15 07:43:28;;;;;;;10.50;5.10;;;23.30;9.30;;;;;;5053533;28;20432;-76
2023/06/15 07:45:53;;;;;;;9.80;5.25;;;23.30;9.70;;;;;;5052639;28;20389;-77
2023/06/15 07:48:19;;;;;;;15.07;5.80;;;23.40;9.90;;;;;;5052694;28;20445;-76
2023/06/15 07:50:46;;;;;;;11.30;5.20;;;23.70;9.70;;;;;;5051284;28;20397;-76
2023/06/15 07:53:12;;;;;;;13.25;5.38;;;23.80;9.30;;;;;;5052463;28;20873;-78
2023/06/15 07:55:37;;;;;;;12.07;5.30;;;24.00;8.90;;;;;;5052097;28;20527;-76
2023/06/15 07:58:03;;;;;;;11.30;5.30;;;24.00;8.90;;;;;;5052778;28;20487;-75
2023/06/15 08:00:28;;;;;;;8.98;5.18;;;23.90;9.00;;;;;;5052074;28;20397;-75
2023/06/15 08:02:54;;;;;;;17.57;6.00;;;23.70;9.40;;;;;;5051717;28;20426;-75
2023/06/15 08:05:20;;;;;;;15.10;5.88;;;23.70;9.40;;;;;;5051884;28;20389;-76
2023/06/15 08:07:45;;;;;;;16.88;5.90;;;24.00;10.00;;;;;;5051812;28;20427;-76
2023/06/15 08:10:11;;;;;;;13.83;5.73;;;24.20;9.50;;;;;;5051843;28;20746;-74
2023/06/15 08:12:36;;;;;;;10.68;5.10;;;24.00;9.20;;;;;;5050232;28;20807;-74
2023/06/15 08:15:02;;;;;;;9.90;4.93;;;23.90;9.30;;;;;;5051932;28;20480;-78
2023/06/15 08:17:28;;;;;;;8.60;4.57;;;23.90;8.20;;;;;;5051743;28;20468;-75
2023/06/15 08:19:54;;;;;;;11.10;5.10;;;23.90;8.20;;;;;;5052277;28;20467;-75
2023/06/15 08:22:19;;;;;;;9.43;5.00;;;23.90;7.50;;;;;;5050544;28;20449;-74
2023/06/15 08:24:45;;;;;;;8.02;4.45;;;24.10;7.90;;;;;;5052383;28;20400;-76
2023/06/15 08:27:11;;;;;;;9.90;5.38;;;24.20;6.90;;;;;;5052839;28;20386;-75
2023/06/15 08:29:37;;;;;;;7.97;4.27;;;24.30;7.30;;;;;;5052416;28;20397;-75
2023/06/15 08:32:06;;;;;;;13.93;4.70;;;24.10;7.40;;;;;;5051194;28;20389;-76
2023/06/15 08:34:32;;;;;;;9.23;4.60;;;24.10;7.70;;;;;;5050522;28;20386;-76
2023/06/15 08:36:58;;;;;;;7.50;4.60;;;24.40;6.80;;;;;;5052815;28;20444;-75
2023/06/15 08:39:23;;;;;;;8.90;5.00;;;24.60;6.10;;;;;;5062516;28;20447;-77
2023/06/15 08:41:51;;;;;;;7.22;4.80;;;24.70;6.50;;;;;;5067366;28;20957;-76
2023/06/15 08:44:18;;;;;;;9.00;4.70;;;24.50;6.80;;;;;;5056409;28;20802;-74
2023/06/15 08:46:45;;;;;;;12.30;5.40;;;24.60;6.90;;;;;;5054565;28;20845;-75
2023/06/15 08:49:12;;;;;;;11.57;5.10;;;24.80;6.60;;;;;;5066106;28;20397;-76
2023/06/15 08:51:38;;;;;;;13.77;4.38;;;25.10;6.00;;;;;;5065027;28;20530;-76
2023/06/15 08:54:06;;;;;;;11.15;4.85;;;25.50;4.90;;;;;;5056383;28;20420;-75
2023/06/15 08:56:31;;;;;;;11.05;4.78;;;25.80;3.90;;;;;;5051339;28;20480;-74
2023/06/15 08:58:57;;;;;;;8.63;4.80;;;26.00;4.10;;;;;;5051610;28;20388;-76
2023/06/15 09:01:25;;;;;;;13.00;5.05;;;26.20;3.40;;;;;;5051948;28;20439;-74
2023/06/15 09:03:53;;;;;;;13.05;4.68;;;26.40;3.40;;;;;;5051396;28;20459;-73
2023/06/15 09:06:20;;;;;;;12.53;4.67;;;26.60;3.10;;;;;;5050629;28;20463;-75
2023/06/15 09:08:46;;;;;;;9.85;4.80;;;26.60;2.20;;;;;;5051895;28;20492;-74
2023/06/15 09:11:12;;;;;;;9.18;4.68;;;26.40;2.80;;;;;;5051132;28;20823;-77
2023/06/15 09:13:37;;;;;;;8.90;4.40;;;26.20;3.00;;;;;;5051370;28;20439;-75
2023/06/15 09:16:07;;;;;;;10.47;4.80;;;26.20;3.00;;;;;;5051342;28;20381;-74
2023/06/15 09:18:43;;;;;;;8.63;4.70;;;26.20;2.50;;;;;;5049857;28;20393;-76
2023/06/15 09:21:16;;;;;;;10.23;4.60;;;26.40;2.00;;;;;;5051362;28;20397;-74
2023/06/15 09:23:44;;;;;;;9.10;4.45;;;26.30;1.60;;;;;;5052220;28;20449;-74
2023/06/15 09:26:23;;;;;;;9.70;4.60;;;26.10;1.00;;;;;;5051252;28;20389;-76
2023/06/15 09:28:49;;;;;;;8.27;4.60;;;26.00;1.70;;;;;;5051206;28;20378;-75
2023/06/15 09:31:34;;;;;;;8.10;4.57;;;26.10;1.50;;;;;;5054447;28;20522;-76
2023/06/15 09:34:10;;;;;;;8.57;4.30;;;26.10;1.50;;;;;;5056774;28;20450;-75
2023/06/15 09:36:48;;;;;;;12.13;5.00;;;26.10;1.80;;;;;;5057325;28;20384;-76
2023/06/15 09:39:15;;;;;;;12.25;4.60;;;26.30;1.50;;;;;;5056414;28;20452;-75
2023/06/15 09:41:56;;;;;;;8.35;4.25;;;26.70;1.00;;;;;;5056374;28;20396;-76
2023/06/15 09:44:22;;;;;;;7.38;3.97;;;26.80;1.00;;;;;;5056754;28;20385;-76
2023/06/15 09:46:59;;;;;;;7.07;4.03;;;26.80;1.00;;;;;;5086968;23;20474;-71
2023/06/15 09:49:28;;;;;;;13.70;5.13;;;27.10;1.00;;;;;;5071364;28;20472;-73
2023/06/15 09:51:55;;;;;;;8.70;4.60;;;27.10;1.00;;;;;;5071155;28;20870;-71
2023/06/15 09:54:28;;;;;;;12.20;4.93;;;26.90;1.00;;;;;;5071546;28;20471;-72
2023/06/15 09:56:54;;;;;;;7.83;4.40;;;27.00;1.00;;;;;;5073809;28;20383;-72
2023/06/15 09:59:21;;;;;;;7.20;4.35;;;27.10;1.00;;;;;;5075517;28;20488;-72
2023/06/15 10:01:48;;;;;;;9.90;4.60;;;27.50;1.00;;;;;;5075288;28;20524;-71
2023/06/15 10:04:20;;;;;;;7.00;4.50;;;27.60;1.00;;;;;;5075781;28;20716;-71
2023/06/15 10:06:49;;;;;;;10.98;4.70;;;27.70;1.00;;;;;;5075954;28;21028;-72
2023/06/15 10:09:19;;;;;;;10.50;4.80;;;27.80;1.00;;;;;;5075567;28;20398;-73
2023/06/15 10:11:48;;;;;;;10.75;4.38;;;27.80;1.00;;;;;;5074852;28;20376;-71
2023/06/15 10:14:22;;;;;;;8.60;4.80;;;27.90;1.00;;;;;;5073749;28;20434;-72
2023/06/15 10:16:53;;;;;;;7.03;4.53;;;27.90;1.00;;;;;;5073818;28;20391;-72
2023/06/15 10:19:21;;;;;;;7.20;4.23;;;27.30;1.00;;;;;;5075308;28;20399;-71
2023/06/15 10:21:48;;;;;;;7.47;4.40;;;27.10;1.00;;;;;;5075344;28;20375;-72
2023/06/15 10:24:16;;;;;;;11.53;4.90;;;27.40;1.00;;;;;;5075537;28;20375;-73
2023/06/15 10:26:43;;;;;;;11.20;4.87;;;27.70;1.00;;;;;;5074940;28;20383;-71
2023/06/15 10:29:23;;;;;;;7.13;4.50;;;27.90;1.00;;;;;;5074873;28;20387;-71
2023/06/15 10:32:02;;;;;;;7.90;4.55;;;27.70;1.00;;;;;;5074500;28;20421;-71
2023/06/15 10:34:40;;;;;;;9.90;4.95;;;27.80;1.00;;;;;;5074536;28;20376;-71
2023/06/15 10:37:13;;;;;;;6.80;4.40;;;28.10;1.00;;;;;;5074787;28;20384;-71
2023/06/15 10:39:44;;;;;;;7.72;5.00;;;27.80;1.00;;;;;;5072957;28;20416;-71
2023/06/15 10:42:14;;;;;;;9.65;4.43;;;27.30;1.00;;;;;;5074215;28;20379;-72
2023/06/15 10:44:40;;;;;;;11.00;4.90;;;27.10;1.00;;;;;;5074266;28;20943;-70
2023/06/15 10:47:14;;;;;;;8.23;4.73;;;27.10;1.00;;;;;;5074178;28;20544;-71
2023/06/15 10:49:52;;;;;;;8.35;4.70;;;27.30;1.00;;;;;;5074010;28;20876;-71
2023/06/15 10:52:18;;;;;;;14.57;5.40;;;27.10;1.00;;;;;;5074126;28;20871;-70
2023/06/15 10:54:44;;;;;;;10.23;5.50;;;27.30;1.00;;;;;;5073661;28;20760;-71
2023/06/15 10:57:15;;;;;;;9.60;5.32;;;27.30;1.00;;;;;;5073857;28;20383;-70
2023/06/15 10:59:49;;;;;;;11.27;5.00;;;27.40;1.00;;;;;;5074235;28;20399;-70
2023/06/15 11:02:33;;;;;;;9.43;5.20;;;26.90;1.00;;;;;;5074192;28;20380;-71
2023/06/15 11:05:08;;;;;;;8.68;5.00;;;26.70;1.00;;;;;;5074598;28;20375;-71
2023/06/15 11:07:39;;;;;;;11.60;5.20;;;26.80;1.00;;;;;;5073476;28;20380;-72
2023/06/15 11:10:26;;;;;;;12.73;4.80;;;27.10;1.00;;;;;;5074178;28;20382;-71
2023/06/15 11:13:03;;;;;;;10.07;4.90;;;27.10;1.00;;;;;;5072382;28;20461;-71
2023/06/15 11:15:33;;;;;;;9.07;4.80;;;27.30;1.00;;;;;;5074162;28;20746;-71
2023/06/15 11:18:02;;;;;;;13.90;5.00;;;27.50;1.00;;;;;;5074145;28;20459;-72
2023/06/15 11:20:37;;;;;;;10.85;5.35;;;27.50;1.00;;;;;;5074237;28;20399;-71
2023/06/15 11:23:11;;;;;;;8.95;4.75;;;26.90;1.00;;;;;;5074074;28;20375;-71
2023/06/15 11:25:44;;;;;;;10.25;4.90;;;26.40;1.00;;;;;;5073277;28;20375;-72
2023/06/15 11:28:11;;;;;;;10.02;4.70;;;26.20;1.00;;;;;;5073646;28;20473;-71
2023/06/15 11:30:40;;;;;;;11.90;5.30;;;26.30;1.00;;;;;;5073622;28;20380;-71
2023/06/15 11:33:13;;;;;;;10.32;4.88;;;26.70;1.00;;;;;;5075086;28;20384;-72
2023/06/15 11:35:39;;;;;;;11.80;6.22;;;27.30;1.00;;;;;;5074828;28;20708;-73
2023/06/15 11:38:08;;;;;;;10.35;4.88;;;27.80;1.00;;;;;;5076936;28;20465;-71
2023/06/15 11:40:34;;;;;;;9.38;4.80;;;28.40;1.00;;;;;;5076679;28;20399;-73
2023/06/15 11:43:02;;;;;;;9.68;4.90;;;28.60;1.00;;;;;;5086370;28;20376;-71
2023/06/15 11:45:28;;;;;;;7.90;4.65;;;28.70;1.00;;;;;;5092542;28;20384;-72
2023/06/15 11:47:54;;;;;;;11.05;4.60;;;28.90;1.00;;;;;;5091495;28;20550;-73
2023/06/15 11:50:20;;;;;;;8.88;5.05;;;28.50;1.00;;;;;;5091490;28;20470;-71
2023/06/15 11:52:46;;;;;;;9.20;5.30;;;27.60;1.00;;;;;;5093319;28;20407;-72
2023/06/15 11:55:15;;;;;;;7.20;4.60;;;27.10;1.00;;;;;;5089183;28;20394;-73
2023/06/15 11:57:44;;;;;;;10.60;5.00;;;26.70;1.00;;;;;;5083793;28;20998;-71
2023/06/15 12:00:12;;;;;;;8.95;4.88;;;26.30;1.00;;;;;;5074837;28;20833;-71
2023/06/15 12:02:40;;;;;;;9.65;4.88;;;26.10;1.00;;;;;;5073293;28;20380;-72
2023/06/15 12:05:05;;;;;;;11.02;4.45;;;26.10;1.00;;;;;;5073606;28;20466;-71
2023/06/15 12:07:32;;;;;;;11.27;5.10;;;26.00;1.00;;;;;;5073519;28;20410;-71
2023/06/15 12:10:00;;;;;;;9.85;5.25;;;26.10;1.00;;;;;;5072484;28;20390;-71
2023/06/15 12:12:34;;;;;;;9.85;5.20;;;26.20;1.00;;;;;;5072342;28;20528;-72
2023/06/15 12:15:00;;;;;;;10.50;4.80;;;26.60;1.00;;;;;;5072476;28;20387;-71
2023/06/15 12:17:33;;;;;;;10.90;4.72;;;27.10;1.00;;;;;;5070952;28;20480;-73
2023/06/15 12:20:09;;;;;;;11.40;4.57;;;26.90;1.00;;;;;;5070439;28;20514;-71
2023/06/15 12:22:45;;;;;;;7.80;4.40;;;27.00;1.00;;;;;;5071824;28;20372;-70
2023/06/15 12:25:11;;;;;;;9.30;4.55;;;27.20;1.00;;;;;;5070621;28;20383;-71
2023/06/15 12:27:41;;;;;;;7.15;4.57;;;27.40;1.00;;;;;;5072175;28;20411;-70
2023/06/15 12:30:15;;;;;;;11.38;4.55;;;27.80;1.00;;;;;;5071663;28;20768;-71
2023/06/15 12:32:48;;;;;;;6.60;4.80;;;28.20;1.00;;;;;;5071441;28;20391;-71
2023/06/15 12:35:41;;;;;;;11.10;4.67;;;28.40;1.00;;;;;;5071771;28;20394;-71
2023/06/15 12:38:08;;;;;;;7.32;4.40;;;28.60;1.00;;;;;;5071728;28;20387;-71
2023/06/15 12:40:41;;;;;;;7.15;4.60;;;28.70;1.00;;;;;;5071142;28;20399;-70
2023/06/15 12:43:07;;;;;;;8.02;4.75;;;29.30;1.00;;;;;;5071329;28;20749;-72
2023/06/15 12:45:33;;;;;;;7.20;4.57;;;29.70;1.00;;;;;;5071154;28;20396;-72
2023/06/15 12:47:59;;;;;;;8.35;4.40;;;30.00;1.00;;;;;;5071824;28;20380;-70